sensor_id;sensor_type;location;lat;lon;timestamp;P1;durP1;ratioP1;P2;durP2;ratioP2
48951;SDS011;34758;42.148;24.744;2022-12-18T00:01:01;31.20;;;22.98;;
48951;SDS011;34758;42.148;24.744;2022-12-18T00:03:32;33.30;;;21.95;;
48951;SDS011;34758;42.148;24.744;2022-12-18T00:05:59;28.55;;;21.60;;
48951;SDS011;34758;42.148;24.744;2022-12-18T00:08:26;28.85;;;21.95;;
48951;SDS011;34758;42.148;24.744;2022-12-18T00:10:54;32.70;;;22.92;;
48951;SDS011;34758;42.148;24.744;2022-12-18T00:13:21;29.38;;;22.60;;
48951;SDS011;34758;42.148;24.744;2022-12-18T00:15:49;32.72;;;24.33;;
48951;SDS011;34758;42.148;24.744;2022-12-18T00:18:16;31.42;;;23.83;;
48951;SDS011;34758;42.148;24.744;2022-12-18T00:20:43;30.92;;;22.48;;
48951;SDS011;34758;42.148;24.744;2022-12-18T00:23:10;31.05;;;22.92;;
48951;SDS011;34758;42.148;24.744;2022-12-18T00:25:37;29.75;;;22.70;;
48951;SDS011;34758;42.148;24.744;2022-12-18T00:28:04;31.05;;;22.40;;
48951;SDS011;34758;42.148;24.744;2022-12-18T00:30:31;26.65;;;21.77;;
48951;SDS011;34758;42.148;24.744;2022-12-18T00:32:59;27.17;;;19.38;;
48951;SDS011;34758;42.148;24.744;2022-12-18T00:35:26;26.98;;;20.33;;
48951;SDS011;34758;42.148;24.744;2022-12-18T00:37:53;24.13;;;18.15;;
48951;SDS011;34758;42.148;24.744;2022-12-18T00:40:20;25.35;;;18.90;;
48951;SDS011;34758;42.148;24.744;2022-12-18T00:42:47;23.33;;;17.83;;
48951;SDS011;34758;42.148;24.744;2022-12-18T00:45:22;23.65;;;17.73;;
48951;SDS011;34758;42.148;24.744;2022-12-18T00:47:51;25.75;;;18.40;;
48951;SDS011;34758;42.148;24.744;2022-12-18T00:50:20;22.85;;;16.88;;
48951;SDS011;34758;42.148;24.744;2022-12-18T00:52:47;21.95;;;16.75;;
48951;SDS011;34758;42.148;24.744;2022-12-18T00:55:17;23.63;;;15.85;;
48951;SDS011;34758;42.148;24.744;2022-12-18T00:57:44;20.45;;;15.80;;
48951;SDS011;34758;42.148;24.744;2022-12-18T01:00:13;21.83;;;16.77;;
48951;SDS011;34758;42.148;24.744;2022-12-18T01:02:41;29.45;;;19.73;;
48951;SDS011;34758;42.148;24.744;2022-12-18T01:05:09;28.45;;;19.77;;
48951;SDS011;34758;42.148;24.744;2022-12-18T01:07:40;28.27;;;20.58;;
48951;SDS011;34758;42.148;24.744;2022-12-18T01:10:10;29.52;;;20.85;;
48951;SDS011;34758;42.148;24.744;2022-12-18T01:12:39;28.75;;;20.58;;
48951;SDS011;34758;42.148;24.744;2022-12-18T01:15:06;28.95;;;21.50;;
48951;SDS011;34758;42.148;24.744;2022-12-18T01:17:34;32.50;;;21.83;;
48951;SDS011;34758;42.148;24.744;2022-12-18T01:20:01;29.15;;;21.35;;
48951;SDS011;34758;42.148;24.744;2022-12-18T01:22:28;29.70;;;21.13;;
48951;SDS011;34758;42.148;24.744;2022-12-18T01:24:59;29.02;;;22.02;;
48951;SDS011;34758;42.148;24.744;2022-12-18T01:27:26;30.88;;;21.85;;
48951;SDS011;34758;42.148;24.744;2022-12-18T01:29:53;27.92;;;21.48;;
48951;SDS011;34758;42.148;24.744;2022-12-18T01:32:21;28.38;;;20.95;;
48951;SDS011;34758;42.148;24.744;2022-12-18T01:34:47;30.15;;;21.83;;
48951;SDS011;34758;42.148;24.744;2022-12-18T01:37:14;28.55;;;20.90;;
48951;SDS011;34758;42.148;24.744;2022-12-18T01:39:41;29.42;;;24.00;;
48951;SDS011;34758;42.148;24.744;2022-12-18T01:42:10;26.67;;;21.00;;
48951;SDS011;34758;42.148;24.744;2022-12-18T01:44:52;27.58;;;20.35;;
48951;SDS011;34758;42.148;24.744;2022-12-18T01:47:22;24.35;;;19.30;;
48951;SDS011;34758;42.148;24.744;2022-12-18T01:49:51;30.80;;;21.02;;
48951;SDS011;34758;42.148;24.744;2022-12-18T01:52:19;26.25;;;20.48;;
48951;SDS011;34758;42.148;24.744;2022-12-18T01:54:46;26.55;;;19.15;;
48951;SDS011;34758;42.148;24.744;2022-12-18T01:57:15;27.42;;;19.52;;
48951;SDS011;34758;42.148;24.744;2022-12-18T01:59:43;24.73;;;17.83;;
48951;SDS011;34758;42.148;24.744;2022-12-18T02:02:12;20.65;;;16.42;;
48951;SDS011;34758;42.148;24.744;2022-12-18T02:04:39;19.40;;;14.65;;
48951;SDS011;34758;42.148;24.744;2022-12-18T02:07:08;20.27;;;15.48;;
48951;SDS011;34758;42.148;24.744;2022-12-18T02:09:40;18.77;;;14.55;;
48951;SDS011;34758;42.148;24.744;2022-12-18T02:12:11;19.35;;;14.77;;
48951;SDS011;34758;42.148;24.744;2022-12-18T02:14:43;19.30;;;14.60;;
48951;SDS011;34758;42.148;24.744;2022-12-18T02:17:13;17.50;;;13.63;;
48951;SDS011;34758;42.148;24.744;2022-12-18T02:19:47;18.73;;;13.50;;
48951;SDS011;34758;42.148;24.744;2022-12-18T02:22:25;16.35;;;13.73;;
48951;SDS011;34758;42.148;24.744;2022-12-18T02:24:58;16.80;;;13.25;;
48951;SDS011;34758;42.148;24.744;2022-12-18T02:27:29;18.52;;;13.27;;
48951;SDS011;34758;42.148;24.744;2022-12-18T02:29:59;16.52;;;11.95;;
48951;SDS011;34758;42.148;24.744;2022-12-18T02:32:27;15.68;;;12.55;;
48951;SDS011;34758;42.148;24.744;2022-12-18T02:34:55;15.50;;;11.82;;
48951;SDS011;34758;42.148;24.744;2022-12-18T02:37:23;13.68;;;11.52;;
48951;SDS011;34758;42.148;24.744;2022-12-18T02:39:51;13.93;;;11.73;;
48951;SDS011;34758;42.148;24.744;2022-12-18T02:42:20;13.77;;;10.77;;
48951;SDS011;34758;42.148;24.744;2022-12-18T02:44:49;16.27;;;12.02;;
48951;SDS011;34758;42.148;24.744;2022-12-18T02:47:18;16.83;;;12.35;;
48951;SDS011;34758;42.148;24.744;2022-12-18T02:49:49;15.85;;;10.57;;
48951;SDS011;34758;42.148;24.744;2022-12-18T02:52:23;16.42;;;11.90;;
48951;SDS011;34758;42.148;24.744;2022-12-18T02:54:56;20.33;;;13.32;;
48951;SDS011;34758;42.148;24.744;2022-12-18T02:57:29;17.17;;;12.80;;
48951;SDS011;34758;42.148;24.744;2022-12-18T03:00:04;14.70;;;11.93;;
48951;SDS011;34758;42.148;24.744;2022-12-18T03:02:35;20.42;;;11.38;;
48951;SDS011;34758;42.148;24.744;2022-12-18T03:05:07;15.15;;;11.45;;
48951;SDS011;34758;42.148;24.744;2022-12-18T03:07:40;14.15;;;11.07;;
48951;SDS011;34758;42.148;24.744;2022-12-18T03:10:12;15.23;;;12.25;;
48951;SDS011;34758;42.148;24.744;2022-12-18T03:12:42;14.80;;;12.00;;
48951;SDS011;34758;42.148;24.744;2022-12-18T03:15:13;16.10;;;11.98;;
48951;SDS011;34758;42.148;24.744;2022-12-18T03:17:44;16.02;;;11.95;;
48951;SDS011;34758;42.148;24.744;2022-12-18T03:20:14;14.80;;;11.33;;
48951;SDS011;34758;42.148;24.744;2022-12-18T03:22:44;17.42;;;11.27;;
48951;SDS011;34758;42.148;24.744;2022-12-18T03:25:14;19.30;;;13.02;;
48951;SDS011;34758;42.148;24.744;2022-12-18T03:27:44;19.65;;;13.27;;
48951;SDS011;34758;42.148;24.744;2022-12-18T03:30:15;16.33;;;11.55;;
48951;SDS011;34758;42.148;24.744;2022-12-18T03:32:44;15.43;;;11.18;;
48951;SDS011;34758;42.148;24.744;2022-12-18T03:35:16;13.30;;;10.68;;
48951;SDS011;34758;42.148;24.744;2022-12-18T03:37:47;12.52;;;9.93;;
48951;SDS011;34758;42.148;24.744;2022-12-18T03:40:14;11.95;;;10.07;;
48951;SDS011;34758;42.148;24.744;2022-12-18T03:42:43;14.32;;;10.10;;
48951;SDS011;34758;42.148;24.744;2022-12-18T03:45:17;10.57;;;8.65;;
48951;SDS011;34758;42.148;24.744;2022-12-18T03:47:50;11.13;;;8.85;;
48951;SDS011;34758;42.148;24.744;2022-12-18T03:50:24;12.07;;;8.65;;
48951;SDS011;34758;42.148;24.744;2022-12-18T03:52:57;15.55;;;9.23;;
48951;SDS011;34758;42.148;24.744;2022-12-18T03:55:29;13.98;;;9.10;;
48951;SDS011;34758;42.148;24.744;2022-12-18T03:57:58;11.15;;;8.85;;
48951;SDS011;34758;42.148;24.744;2022-12-18T04:00:27;13.63;;;9.25;;
48951;SDS011;34758;42.148;24.744;2022-12-18T04:02:55;11.68;;;7.90;;
48951;SDS011;34758;42.148;24.744;2022-12-18T04:05:23;8.98;;;7.90;;
48951;SDS011;34758;42.148;24.744;2022-12-18T04:07:51;14.38;;;8.57;;
48951;SDS011;34758;42.148;24.744;2022-12-18T04:10:19;11.73;;;7.55;;
48951;SDS011;34758;42.148;24.744;2022-12-18T04:12:47;13.30;;;8.13;;
48951;SDS011;34758;42.148;24.744;2022-12-18T04:15:16;10.27;;;7.95;;
48951;SDS011;34758;42.148;24.744;2022-12-18T04:17:46;9.25;;;7.65;;
48951;SDS011;34758;42.148;24.744;2022-12-18T04:20:14;11.80;;;8.10;;
48951;SDS011;34758;42.148;24.744;2022-12-18T04:22:42;11.10;;;8.48;;
48951;SDS011;34758;42.148;24.744;2022-12-18T04:25:09;10.65;;;8.13;;
48951;SDS011;34758;42.148;24.744;2022-12-18T04:27:37;11.30;;;8.20;;
48951;SDS011;34758;42.148;24.744;2022-12-18T04:30:04;8.68;;;7.00;;
48951;SDS011;34758;42.148;24.744;2022-12-18T04:32:33;9.50;;;7.65;;
48951;SDS011;34758;42.148;24.744;2022-12-18T04:35:01;9.65;;;7.18;;
48951;SDS011;34758;42.148;24.744;2022-12-18T04:37:29;9.27;;;6.47;;
48951;SDS011;34758;42.148;24.744;2022-12-18T04:39:59;9.07;;;6.10;;
48951;SDS011;34758;42.148;24.744;2022-12-18T04:42:27;7.47;;;5.45;;
48951;SDS011;34758;42.148;24.744;2022-12-18T04:44:55;8.90;;;5.90;;
48951;SDS011;34758;42.148;24.744;2022-12-18T04:47:22;6.85;;;5.55;;
48951;SDS011;34758;42.148;24.744;2022-12-18T04:49:49;7.35;;;4.68;;
48951;SDS011;34758;42.148;24.744;2022-12-18T04:52:17;6.30;;;4.78;;
48951;SDS011;34758;42.148;24.744;2022-12-18T04:54:44;6.40;;;5.05;;
48951;SDS011;34758;42.148;24.744;2022-12-18T04:57:11;5.43;;;4.18;;
48951;SDS011;34758;42.148;24.744;2022-12-18T04:59:38;6.07;;;4.30;;
48951;SDS011;34758;42.148;24.744;2022-12-18T05:02:05;7.53;;;4.63;;
48951;SDS011;34758;42.148;24.744;2022-12-18T05:04:32;4.82;;;3.45;;
48951;SDS011;34758;42.148;24.744;2022-12-18T05:07:00;6.68;;;3.85;;
48951;SDS011;34758;42.148;24.744;2022-12-18T05:09:31;5.75;;;3.50;;
48951;SDS011;34758;42.148;24.744;2022-12-18T05:11:58;4.03;;;3.30;;
48951;SDS011;34758;42.148;24.744;2022-12-18T05:14:25;4.88;;;3.33;;
48951;SDS011;34758;42.148;24.744;2022-12-18T05:16:52;5.63;;;3.28;;
48951;SDS011;34758;42.148;24.744;2022-12-18T05:19:19;5.00;;;3.80;;
48951;SDS011;34758;42.148;24.744;2022-12-18T05:21:47;4.88;;;3.25;;
48951;SDS011;34758;42.148;24.744;2022-12-18T05:24:13;4.82;;;3.35;;
48951;SDS011;34758;42.148;24.744;2022-12-18T05:26:42;4.53;;;3.70;;
48951;SDS011;34758;42.148;24.744;2022-12-18T05:29:09;4.90;;;3.97;;
48951;SDS011;34758;42.148;24.744;2022-12-18T05:31:37;4.63;;;3.90;;
48951;SDS011;34758;42.148;24.744;2022-12-18T05:34:04;5.32;;;3.88;;
48951;SDS011;34758;42.148;24.744;2022-12-18T05:36:33;4.90;;;4.07;;
48951;SDS011;34758;42.148;24.744;2022-12-18T05:39:00;5.40;;;4.22;;
48951;SDS011;34758;42.148;24.744;2022-12-18T05:41:27;4.30;;;3.40;;
48951;SDS011;34758;42.148;24.744;2022-12-18T05:43:55;5.30;;;4.25;;
48951;SDS011;34758;42.148;24.744;2022-12-18T05:46:23;5.75;;;3.50;;
48951;SDS011;34758;42.148;24.744;2022-12-18T05:48:50;6.40;;;4.60;;
48951;SDS011;34758;42.148;24.744;2022-12-18T05:51:18;5.57;;;3.90;;
48951;SDS011;34758;42.148;24.744;2022-12-18T05:53:46;5.00;;;3.80;;
48951;SDS011;34758;42.148;24.744;2022-12-18T05:56:14;6.22;;;4.25;;
48951;SDS011;34758;42.148;24.744;2022-12-18T05:58:42;6.10;;;4.40;;
48951;SDS011;34758;42.148;24.744;2022-12-18T06:01:12;8.85;;;4.10;;
48951;SDS011;34758;42.148;24.744;2022-12-18T06:03:40;6.55;;;3.60;;
48951;SDS011;34758;42.148;24.744;2022-12-18T06:06:14;4.93;;;3.33;;
48951;SDS011;34758;42.148;24.744;2022-12-18T06:08:41;6.03;;;3.80;;
48951;SDS011;34758;42.148;24.744;2022-12-18T06:11:08;5.22;;;3.58;;
48951;SDS011;34758;42.148;24.744;2022-12-18T06:13:36;5.30;;;3.80;;
48951;SDS011;34758;42.148;24.744;2022-12-18T06:16:04;5.97;;;4.13;;
48951;SDS011;34758;42.148;24.744;2022-12-18T06:18:33;6.10;;;4.07;;
48951;SDS011;34758;42.148;24.744;2022-12-18T06:21:00;5.55;;;3.90;;
48951;SDS011;34758;42.148;24.744;2022-12-18T06:23:28;6.00;;;4.25;;
48951;SDS011;34758;42.148;24.744;2022-12-18T06:25:55;6.22;;;3.75;;
48951;SDS011;34758;42.148;24.744;2022-12-18T06:28:22;4.68;;;3.30;;
48951;SDS011;34758;42.148;24.744;2022-12-18T06:30:49;6.25;;;3.60;;
48951;SDS011;34758;42.148;24.744;2022-12-18T06:33:16;4.35;;;3.38;;
48951;SDS011;34758;42.148;24.744;2022-12-18T06:35:46;5.32;;;3.60;;
48951;SDS011;34758;42.148;24.744;2022-12-18T06:38:13;5.30;;;3.55;;
48951;SDS011;34758;42.148;24.744;2022-12-18T06:40:40;4.47;;;3.25;;
48951;SDS011;34758;42.148;24.744;2022-12-18T06:43:07;7.95;;;3.13;;
48951;SDS011;34758;42.148;24.744;2022-12-18T06:45:35;7.30;;;4.00;;
48951;SDS011;34758;42.148;24.744;2022-12-18T06:48:02;5.63;;;3.00;;
48951;SDS011;34758;42.148;24.744;2022-12-18T06:50:29;4.75;;;3.58;;
48951;SDS011;34758;42.148;24.744;2022-12-18T06:52:57;4.97;;;3.80;;
48951;SDS011;34758;42.148;24.744;2022-12-18T06:55:24;4.68;;;3.10;;
48951;SDS011;34758;42.148;24.744;2022-12-18T06:57:54;4.25;;;3.40;;
48951;SDS011;34758;42.148;24.744;2022-12-18T07:00:21;6.18;;;3.25;;
48951;SDS011;34758;42.148;24.744;2022-12-18T07:02:49;5.85;;;3.80;;
48951;SDS011;34758;42.148;24.744;2022-12-18T07:05:17;4.90;;;3.38;;
48951;SDS011;34758;42.148;24.744;2022-12-18T07:07:44;6.65;;;4.20;;
48951;SDS011;34758;42.148;24.744;2022-12-18T07:10:12;5.50;;;3.90;;
48951;SDS011;34758;42.148;24.744;2022-12-18T07:12:40;3.90;;;3.13;;
48951;SDS011;34758;42.148;24.744;2022-12-18T07:15:07;5.43;;;3.60;;
48951;SDS011;34758;42.148;24.744;2022-12-18T07:17:34;5.43;;;4.00;;
48951;SDS011;34758;42.148;24.744;2022-12-18T07:20:02;7.07;;;3.60;;
48951;SDS011;34758;42.148;24.744;2022-12-18T07:22:29;6.93;;;4.97;;
48951;SDS011;34758;42.148;24.744;2022-12-18T07:24:56;6.95;;;4.43;;
48951;SDS011;34758;42.148;24.744;2022-12-18T07:27:25;6.50;;;4.28;;
48951;SDS011;34758;42.148;24.744;2022-12-18T07:29:52;7.25;;;4.35;;
48951;SDS011;34758;42.148;24.744;2022-12-18T07:32:20;5.75;;;4.00;;
48951;SDS011;34758;42.148;24.744;2022-12-18T07:34:48;5.40;;;3.90;;
48951;SDS011;34758;42.148;24.744;2022-12-18T07:37:15;6.07;;;3.78;;
48951;SDS011;34758;42.148;24.744;2022-12-18T07:39:42;5.53;;;3.58;;
48951;SDS011;34758;42.148;24.744;2022-12-18T07:42:09;6.07;;;3.70;;
48951;SDS011;34758;42.148;24.744;2022-12-18T07:44:55;6.20;;;3.80;;
48951;SDS011;34758;42.148;24.744;2022-12-18T07:47:22;6.63;;;3.45;;
48951;SDS011;34758;42.148;24.744;2022-12-18T07:49:49;6.15;;;4.22;;
48951;SDS011;34758;42.148;24.744;2022-12-18T07:52:16;9.52;;;4.40;;
48951;SDS011;34758;42.148;24.744;2022-12-18T07:54:43;7.00;;;4.18;;
48951;SDS011;34758;42.148;24.744;2022-12-18T07:57:11;5.15;;;4.15;;
48951;SDS011;34758;42.148;24.744;2022-12-18T07:59:38;7.70;;;4.78;;
48951;SDS011;34758;42.148;24.744;2022-12-18T08:02:06;8.77;;;4.47;;
48951;SDS011;34758;42.148;24.744;2022-12-18T08:04:34;7.80;;;4.50;;
48951;SDS011;34758;42.148;24.744;2022-12-18T08:07:01;7.35;;;5.60;;
48951;SDS011;34758;42.148;24.744;2022-12-18T08:09:28;6.70;;;4.85;;
48951;SDS011;34758;42.148;24.744;2022-12-18T08:11:56;6.97;;;5.15;;
48951;SDS011;34758;42.148;24.744;2022-12-18T08:14:24;6.85;;;5.40;;
48951;SDS011;34758;42.148;24.744;2022-12-18T08:16:53;7.97;;;4.93;;
48951;SDS011;34758;42.148;24.744;2022-12-18T08:19:22;7.93;;;5.10;;
48951;SDS011;34758;42.148;24.744;2022-12-18T08:21:49;7.03;;;4.22;;
48951;SDS011;34758;42.148;24.744;2022-12-18T08:24:16;8.10;;;4.30;;
48951;SDS011;34758;42.148;24.744;2022-12-18T08:26:43;5.53;;;4.05;;
48951;SDS011;34758;42.148;24.744;2022-12-18T08:29:09;6.72;;;4.38;;
48951;SDS011;34758;42.148;24.744;2022-12-18T08:31:39;7.00;;;4.43;;
48951;SDS011;34758;42.148;24.744;2022-12-18T08:34:07;6.75;;;4.00;;
48951;SDS011;34758;42.148;24.744;2022-12-18T08:36:36;7.53;;;4.60;;
48951;SDS011;34758;42.148;24.744;2022-12-18T08:39:03;5.78;;;4.40;;
48951;SDS011;34758;42.148;24.744;2022-12-18T08:41:31;5.63;;;3.95;;
48951;SDS011;34758;42.148;24.744;2022-12-18T08:43:58;8.27;;;5.00;;
48951;SDS011;34758;42.148;24.744;2022-12-18T08:46:43;7.85;;;4.85;;
48951;SDS011;34758;42.148;24.744;2022-12-18T08:49:11;7.90;;;5.22;;
48951;SDS011;34758;42.148;24.744;2022-12-18T08:51:40;9.30;;;5.00;;
48951;SDS011;34758;42.148;24.744;2022-12-18T08:54:07;6.95;;;4.85;;
48951;SDS011;34758;42.148;24.744;2022-12-18T08:56:35;7.97;;;5.00;;
48951;SDS011;34758;42.148;24.744;2022-12-18T08:59:04;7.88;;;5.10;;
48951;SDS011;34758;42.148;24.744;2022-12-18T09:01:31;6.32;;;4.78;;
48951;SDS011;34758;42.148;24.744;2022-12-18T09:03:58;6.93;;;4.80;;
48951;SDS011;34758;42.148;24.744;2022-12-18T09:06:25;7.63;;;4.70;;
48951;SDS011;34758;42.148;24.744;2022-12-18T09:08:54;5.88;;;4.47;;
48951;SDS011;34758;42.148;24.744;2022-12-18T09:11:22;10.85;;;5.55;;
48951;SDS011;34758;42.148;24.744;2022-12-18T09:13:52;8.18;;;5.40;;
48951;SDS011;34758;42.148;24.744;2022-12-18T09:16:20;7.53;;;5.72;;
48951;SDS011;34758;42.148;24.744;2022-12-18T09:18:48;6.18;;;4.78;;
48951;SDS011;34758;42.148;24.744;2022-12-18T09:21:16;7.30;;;5.40;;
48951;SDS011;34758;42.148;24.744;2022-12-18T09:23:48;6.35;;;4.50;;
48951;SDS011;34758;42.148;24.744;2022-12-18T09:26:17;9.10;;;4.68;;
48951;SDS011;34758;42.148;24.744;2022-12-18T09:28:44;7.97;;;4.90;;
48951;SDS011;34758;42.148;24.744;2022-12-18T09:31:11;8.27;;;5.10;;
48951;SDS011;34758;42.148;24.744;2022-12-18T09:33:39;11.18;;;5.35;;
48951;SDS011;34758;42.148;24.744;2022-12-18T09:36:07;6.30;;;4.90;;
48951;SDS011;34758;42.148;24.744;2022-12-18T09:38:35;7.72;;;5.28;;
48951;SDS011;34758;42.148;24.744;2022-12-18T09:41:03;7.80;;;5.38;;
48951;SDS011;34758;42.148;24.744;2022-12-18T09:43:36;8.40;;;5.05;;
48951;SDS011;34758;42.148;24.744;2022-12-18T09:46:10;8.27;;;5.30;;
48951;SDS011;34758;42.148;24.744;2022-12-18T09:48:42;8.85;;;5.22;;
48951;SDS011;34758;42.148;24.744;2022-12-18T09:51:12;8.40;;;5.22;;
48951;SDS011;34758;42.148;24.744;2022-12-18T09:53:41;7.85;;;5.53;;
48951;SDS011;34758;42.148;24.744;2022-12-18T09:56:16;8.70;;;5.47;;
48951;SDS011;34758;42.148;24.744;2022-12-18T09:58:46;8.50;;;5.60;;
48951;SDS011;34758;42.148;24.744;2022-12-18T10:01:18;10.07;;;5.35;;
48951;SDS011;34758;42.148;24.744;2022-12-18T10:03:48;11.35;;;5.78;;
48951;SDS011;34758;42.148;24.744;2022-12-18T10:06:18;6.43;;;5.28;;
48951;SDS011;34758;42.148;24.744;2022-12-18T10:08:49;8.48;;;5.80;;
48951;SDS011;34758;42.148;24.744;2022-12-18T10:11:22;7.43;;;5.82;;
48951;SDS011;34758;42.148;24.744;2022-12-18T10:13:57;8.20;;;6.03;;
48951;SDS011;34758;42.148;24.744;2022-12-18T10:16:27;8.75;;;5.18;;
48951;SDS011;34758;42.148;24.744;2022-12-18T10:19:01;8.57;;;5.47;;
48951;SDS011;34758;42.148;24.744;2022-12-18T10:21:39;11.13;;;6.00;;
48951;SDS011;34758;42.148;24.744;2022-12-18T10:24:26;8.48;;;5.85;;
48951;SDS011;34758;42.148;24.744;2022-12-18T10:27:11;13.02;;;7.13;;
48951;SDS011;34758;42.148;24.744;2022-12-18T10:29:42;11.32;;;6.32;;
48951;SDS011;34758;42.148;24.744;2022-12-18T10:32:13;10.40;;;6.20;;
48951;SDS011;34758;42.148;24.744;2022-12-18T10:34:41;15.23;;;8.05;;
48951;SDS011;34758;42.148;24.744;2022-12-18T10:37:12;7.55;;;6.00;;
48951;SDS011;34758;42.148;24.744;2022-12-18T10:39:43;10.40;;;6.25;;
48951;SDS011;34758;42.148;24.744;2022-12-18T10:42:11;8.13;;;5.32;;
48951;SDS011;34758;42.148;24.744;2022-12-18T10:44:45;9.52;;;5.45;;
48951;SDS011;34758;42.148;24.744;2022-12-18T10:47:14;7.50;;;4.95;;
48951;SDS011;34758;42.148;24.744;2022-12-18T10:49:46;8.48;;;6.40;;
48951;SDS011;34758;42.148;24.744;2022-12-18T10:52:17;7.03;;;5.40;;
48951;SDS011;34758;42.148;24.744;2022-12-18T10:54:46;11.20;;;5.47;;
48951;SDS011;34758;42.148;24.744;2022-12-18T10:57:17;9.48;;;5.25;;
48951;SDS011;34758;42.148;24.744;2022-12-18T10:59:58;7.47;;;5.32;;
48951;SDS011;34758;42.148;24.744;2022-12-18T11:02:27;9.77;;;5.70;;
48951;SDS011;34758;42.148;24.744;2022-12-18T11:04:58;8.93;;;6.20;;
48951;SDS011;34758;42.148;24.744;2022-12-18T11:07:25;10.40;;;6.35;;
48951;SDS011;34758;42.148;24.744;2022-12-18T11:09:59;9.82;;;6.25;;
48951;SDS011;34758;42.148;24.744;2022-12-18T11:12:28;17.23;;;7.45;;
48951;SDS011;34758;42.148;24.744;2022-12-18T11:14:58;9.65;;;6.28;;
48951;SDS011;34758;42.148;24.744;2022-12-18T11:17:27;7.75;;;5.13;;
48951;SDS011;34758;42.148;24.744;2022-12-18T11:19:56;6.80;;;5.25;;
48951;SDS011;34758;42.148;24.744;2022-12-18T11:22:25;9.60;;;5.80;;
48951;SDS011;34758;42.148;24.744;2022-12-18T11:24:55;7.63;;;5.25;;
48951;SDS011;34758;42.148;24.744;2022-12-18T11:27:23;7.50;;;5.63;;
48951;SDS011;34758;42.148;24.744;2022-12-18T11:29:51;7.00;;;5.43;;
48951;SDS011;34758;42.148;24.744;2022-12-18T11:35:13;9.52;;;7.22;;
48951;SDS011;34758;42.148;24.744;2022-12-18T11:37:46;8.25;;;5.90;;
48951;SDS011;34758;42.148;24.744;2022-12-18T11:40:16;10.13;;;6.55;;
48951;SDS011;34758;42.148;24.744;2022-12-18T11:42:46;11.82;;;6.43;;
48951;SDS011;34758;42.148;24.744;2022-12-18T11:45:23;13.00;;;7.22;;
48951;SDS011;34758;42.148;24.744;2022-12-18T11:47:55;12.73;;;7.40;;
48951;SDS011;34758;42.148;24.744;2022-12-18T11:50:24;14.20;;;7.82;;
48951;SDS011;34758;42.148;24.744;2022-12-18T11:52:53;9.68;;;7.07;;
48951;SDS011;34758;42.148;24.744;2022-12-18T11:55:23;10.57;;;7.78;;
48951;SDS011;34758;42.148;24.744;2022-12-18T11:58:00;11.18;;;7.68;;
48951;SDS011;34758;42.148;24.744;2022-12-18T12:00:31;11.45;;;7.57;;
48951;SDS011;34758;42.148;24.744;2022-12-18T12:03:18;11.95;;;7.90;;
48951;SDS011;34758;42.148;24.744;2022-12-18T12:05:51;10.25;;;7.80;;
48951;SDS011;34758;42.148;24.744;2022-12-18T12:08:30;8.73;;;6.80;;
48951;SDS011;34758;42.148;24.744;2022-12-18T12:11:06;9.82;;;7.75;;
48951;SDS011;34758;42.148;24.744;2022-12-18T12:13:39;9.23;;;6.90;;
48951;SDS011;34758;42.148;24.744;2022-12-18T12:16:15;10.77;;;6.35;;
48951;SDS011;34758;42.148;24.744;2022-12-18T12:18:53;14.23;;;7.70;;
48951;SDS011;34758;42.148;24.744;2022-12-18T12:21:27;13.40;;;7.75;;
48951;SDS011;34758;42.148;24.744;2022-12-18T12:23:59;11.88;;;7.35;;
48951;SDS011;34758;42.148;24.744;2022-12-18T12:26:35;16.83;;;8.63;;
48951;SDS011;34758;42.148;24.744;2022-12-18T12:29:12;13.27;;;8.00;;
48951;SDS011;34758;42.148;24.744;2022-12-18T12:31:56;9.13;;;6.82;;
48951;SDS011;34758;42.148;24.744;2022-12-18T12:34:32;11.15;;;7.72;;
48951;SDS011;34758;42.148;24.744;2022-12-18T12:37:04;10.82;;;7.13;;
48951;SDS011;34758;42.148;24.744;2022-12-18T12:39:36;12.38;;;7.55;;
48951;SDS011;34758;42.148;24.744;2022-12-18T12:42:09;9.82;;;7.40;;
48951;SDS011;34758;42.148;24.744;2022-12-18T12:44:57;8.75;;;6.15;;
48951;SDS011;34758;42.148;24.744;2022-12-18T12:47:27;8.35;;;6.22;;
48951;SDS011;34758;42.148;24.744;2022-12-18T12:49:57;8.55;;;6.45;;
48951;SDS011;34758;42.148;24.744;2022-12-18T12:52:28;12.35;;;7.25;;
48951;SDS011;34758;42.148;24.744;2022-12-18T12:54:58;16.65;;;8.27;;
48951;SDS011;34758;42.148;24.744;2022-12-18T12:57:27;11.63;;;7.00;;
48951;SDS011;34758;42.148;24.744;2022-12-18T13:02:28;11.00;;;6.85;;
48951;SDS011;34758;42.148;24.744;2022-12-18T13:05:00;11.70;;;6.97;;
48951;SDS011;34758;42.148;24.744;2022-12-18T13:07:32;13.38;;;8.20;;
48951;SDS011;34758;42.148;24.744;2022-12-18T13:10:26;11.60;;;7.75;;
48951;SDS011;34758;42.148;24.744;2022-12-18T13:13:04;13.30;;;8.85;;
48951;SDS011;34758;42.148;24.744;2022-12-18T13:15:33;10.45;;;7.60;;
48951;SDS011;34758;42.148;24.744;2022-12-18T13:18:11;11.25;;;8.02;;
48951;SDS011;34758;42.148;24.744;2022-12-18T13:20:43;12.07;;;8.23;;
48951;SDS011;34758;42.148;24.744;2022-12-18T13:25:58;16.58;;;12.40;;
48951;SDS011;34758;42.148;24.744;2022-12-18T13:34:33;9.73;;;7.55;;
48951;SDS011;34758;42.148;24.744;2022-12-18T13:43:33;14.27;;;8.38;;
48951;SDS011;34758;42.148;24.744;2022-12-18T13:46:04;13.80;;;7.82;;
48951;SDS011;34758;42.148;24.744;2022-12-18T13:48:35;11.57;;;9.25;;
48951;SDS011;34758;42.148;24.744;2022-12-18T13:51:06;12.38;;;9.63;;
48951;SDS011;34758;42.148;24.744;2022-12-18T13:53:37;12.77;;;9.45;;
48951;SDS011;34758;42.148;24.744;2022-12-18T13:56:06;13.88;;;10.32;;
48951;SDS011;34758;42.148;24.744;2022-12-18T13:58:33;16.10;;;11.05;;
48951;SDS011;34758;42.148;24.744;2022-12-18T14:01:00;13.32;;;11.05;;
48951;SDS011;34758;42.148;24.744;2022-12-18T14:03:29;11.30;;;8.32;;
48951;SDS011;34758;42.148;24.744;2022-12-18T14:06:01;13.13;;;8.27;;
48951;SDS011;34758;42.148;24.744;2022-12-18T14:08:39;14.27;;;8.05;;
48951;SDS011;34758;42.148;24.744;2022-12-18T14:11:10;14.73;;;9.10;;
48951;SDS011;34758;42.148;24.744;2022-12-18T14:13:47;16.35;;;9.57;;
48951;SDS011;34758;42.148;24.744;2022-12-18T14:16:15;13.13;;;8.70;;
48951;SDS011;34758;42.148;24.744;2022-12-18T14:18:44;15.30;;;9.50;;
48951;SDS011;34758;42.148;24.744;2022-12-18T14:21:17;14.25;;;10.00;;
48951;SDS011;34758;42.148;24.744;2022-12-18T14:23:47;11.38;;;8.70;;
48951;SDS011;34758;42.148;24.744;2022-12-18T14:26:25;13.73;;;8.82;;
48951;SDS011;34758;42.148;24.744;2022-12-18T14:28:54;13.55;;;9.02;;
48951;SDS011;34758;42.148;24.744;2022-12-18T14:31:22;12.65;;;8.50;;
48951;SDS011;34758;42.148;24.744;2022-12-18T14:33:50;13.88;;;10.52;;
48951;SDS011;34758;42.148;24.744;2022-12-18T14:36:18;13.63;;;8.77;;
48951;SDS011;34758;42.148;24.744;2022-12-18T14:38:50;12.95;;;8.75;;
48951;SDS011;34758;42.148;24.744;2022-12-18T14:41:19;12.32;;;8.68;;
48951;SDS011;34758;42.148;24.744;2022-12-18T14:43:47;11.80;;;8.50;;
48951;SDS011;34758;42.148;24.744;2022-12-18T14:46:25;13.05;;;8.57;;
48951;SDS011;34758;42.148;24.744;2022-12-18T14:48:55;13.40;;;8.90;;
48951;SDS011;34758;42.148;24.744;2022-12-18T14:51:23;14.05;;;9.77;;
48951;SDS011;34758;42.148;24.744;2022-12-18T14:53:54;14.48;;;9.93;;
48951;SDS011;34758;42.148;24.744;2022-12-18T14:56:26;13.38;;;9.45;;
48951;SDS011;34758;42.148;24.744;2022-12-18T14:58:54;14.60;;;9.23;;